createdAt,value
2017-05-29T00:00:20.946Z,1010.27
2017-05-29T00:01:20.973Z,1010.27
2017-05-29T00:02:21.000Z,1010.3
2017-05-29T00:03:21.027Z,1010.23
2017-05-29T00:04:21.054Z,1010.27
2017-05-29T00:05:21.082Z,1010.22
2017-05-29T00:06:21.110Z,1010.21
2017-05-29T00:07:21.138Z,1010.18
2017-05-29T00:08:21.165Z,1010.19
2017-05-29T00:09:21.192Z,1010.2
2017-05-29T00:10:21.220Z,1010.25
2017-05-29T00:11:21.246Z,1010.24
2017-05-29T00:12:21.274Z,1010.25
2017-05-29T00:13:21.301Z,1010.23
2017-05-29T00:14:21.329Z,1010.21
2017-05-29T00:16:21.383Z,1010.21
2017-05-29T00:17:21.410Z,1010.19
2017-05-29T00:18:21.437Z,1010.21
2017-05-29T00:19:21.464Z,1010.22
2017-05-29T00:20:21.492Z,1010.19
2017-05-29T00:21:21.520Z,1010.23
2017-05-29T00:22:21.546Z,1010.24
2017-05-29T00:23:21.574Z,1010.18
2017-05-29T00:24:21.601Z,1010.18
2017-05-29T00:25:21.629Z,1010.16
2017-05-29T00:26:21.655Z,1010.13
2017-05-29T00:27:21.682Z,1010.17
2017-05-29T00:28:21.710Z,1010.09
2017-05-29T00:29:21.736Z,1010.05
2017-05-29T00:30:21.764Z,1010.01
2017-05-29T00:32:21.819Z,1009.95
2017-05-29T00:33:21.845Z,1010
2017-05-29T00:34:21.872Z,1009.98
2017-05-29T00:35:21.900Z,1009.98
2017-05-29T00:36:21.926Z,1009.95
2017-05-29T00:37:21.953Z,1009.96
2017-05-29T00:38:21.980Z,1009.93
2017-05-29T00:39:22.008Z,1009.94
2017-05-29T00:40:22.034Z,1009.95
2017-05-29T00:41:22.062Z,1009.94
2017-05-29T00:42:22.089Z,1009.95
2017-05-29T00:43:22.117Z,1009.96
2017-05-29T00:44:22.143Z,1009.98
2017-05-29T00:45:22.170Z,1010
2017-05-29T00:46:22.197Z,1010.01
2017-05-29T00:48:22.251Z,1010.01
2017-05-29T00:49:22.278Z,1010.01
2017-05-29T00:50:22.306Z,1009.98
2017-05-29T00:51:22.332Z,1010.02
2017-05-29T00:52:22.359Z,1009.98
2017-05-29T00:53:22.387Z,1010.01
2017-05-29T00:54:22.414Z,1010.03
2017-05-29T00:55:22.439Z,1010.01
2017-05-29T00:56:22.468Z,1010.02
2017-05-29T00:57:22.494Z,1009.98
2017-05-29T00:58:22.520Z,1009.99
2017-05-29T00:59:22.548Z,1009.98
2017-05-29T01:00:22.575Z,1009.98
2017-05-29T01:01:22.602Z,1010.03
2017-05-29T01:02:22.628Z,1010.04
2017-05-29T01:04:22.683Z,1010
2017-05-29T01:05:22.710Z,1010.01
2017-05-29T01:06:22.736Z,1010.05
2017-05-29T01:07:22.763Z,1010.04
2017-05-29T01:08:22.791Z,1010.02
2017-05-29T01:09:22.816Z,1010.02
2017-05-29T01:10:22.844Z,1010.06
2017-05-29T01:11:22.871Z,1010.06
2017-05-29T01:12:22.899Z,1010.03
2017-05-29T01:13:22.925Z,1010.04
2017-05-29T01:14:22.953Z,1010.03
2017-05-29T01:15:22.978Z,1009.99
2017-05-29T01:16:23.006Z,1009.97
2017-05-29T01:17:23.034Z,1009.94
2017-05-29T01:19:23.088Z,1009.92
2017-05-29T01:20:23.114Z,1009.94
2017-05-29T01:21:23.141Z,1009.93
2017-05-29T01:22:23.168Z,1009.93
2017-05-29T01:23:23.195Z,1009.9
2017-05-29T01:24:23.222Z,1009.89
2017-05-29T01:25:23.249Z,1009.86
2017-05-29T01:26:23.276Z,1009.85
2017-05-29T01:27:23.302Z,1009.83
2017-05-29T01:28:23.329Z,1009.86
2017-05-29T01:29:23.356Z,1009.83
2017-05-29T01:30:23.383Z,1009.79
2017-05-29T01:31:23.409Z,1009.83
2017-05-29T01:32:23.436Z,1009.81
2017-05-29T01:33:23.463Z,1009.77
2017-05-29T01:34:23.490Z,1009.79
2017-05-29T01:35:23.517Z,1009.75
2017-05-29T01:36:23.544Z,1009.76
2017-05-29T01:37:23.570Z,1009.75
2017-05-29T01:38:23.596Z,1009.73
2017-05-29T01:39:23.623Z,1009.77
2017-05-29T01:40:23.651Z,1009.76
2017-05-29T01:41:23.677Z,1009.79
2017-05-29T01:42:23.703Z,1009.79
2017-05-29T01:43:23.731Z,1009.78
2017-05-29T01:44:23.758Z,1009.77
2017-05-29T01:45:23.785Z,1009.76
2017-05-29T01:46:23.809Z,1009.72
2017-05-29T01:47:23.838Z,1009.74
2017-05-29T01:48:23.865Z,1009.75
2017-05-29T01:49:23.891Z,1009.75
2017-05-29T01:51:23.944Z,1009.74
2017-05-29T01:52:23.972Z,1009.76
2017-05-29T01:53:23.998Z,1009.69
2017-05-29T01:54:24.025Z,1009.71
2017-05-29T01:55:24.052Z,1009.72
2017-05-29T01:56:24.079Z,1009.74
2017-05-29T01:57:24.105Z,1009.72
2017-05-29T01:58:24.131Z,1009.71
2017-05-29T01:59:24.159Z,1009.67
2017-05-29T02:00:24.184Z,1009.67
2017-05-29T02:01:24.211Z,1009.65
2017-05-29T02:02:24.244Z,1009.66
2017-05-29T02:03:24.265Z,1009.72
2017-05-29T02:04:24.292Z,1009.72
2017-05-29T02:05:24.318Z,1009.7
2017-05-29T02:07:24.372Z,1009.68
2017-05-29T02:08:24.399Z,1009.67
2017-05-29T02:09:24.425Z,1009.64
2017-05-29T02:10:24.451Z,1009.59
2017-05-29T02:11:24.476Z,1009.64
2017-05-29T02:12:24.504Z,1009.61
2017-05-29T02:13:24.531Z,1009.64
2017-05-29T02:14:24.558Z,1009.71
2017-05-29T02:15:24.584Z,1009.63
2017-05-29T02:16:24.610Z,1009.66
2017-05-29T02:17:24.638Z,1009.65
2017-05-29T02:18:24.664Z,1009.65
2017-05-29T02:19:24.691Z,1009.64
2017-05-29T02:20:24.717Z,1009.63
2017-05-29T02:21:24.743Z,1009.62
2017-05-29T02:23:24.797Z,1009.59
2017-05-29T02:24:24.824Z,1009.56
2017-05-29T02:25:24.863Z,1009.56
2017-05-29T02:26:24.876Z,1009.55
2017-05-29T02:27:24.903Z,1009.55
2017-05-29T02:28:24.930Z,1009.51
2017-05-29T02:29:24.956Z,1009.54
2017-05-29T02:30:24.982Z,1009.51
2017-05-29T02:31:25.009Z,1009.51
2017-05-29T02:32:25.036Z,1009.51
2017-05-29T02:33:25.061Z,1009.5
2017-05-29T02:34:25.089Z,1009.48
2017-05-29T02:35:25.115Z,1009.46
2017-05-29T02:36:25.143Z,1009.46
2017-05-29T02:37:25.167Z,1009.49
2017-05-29T02:39:25.221Z,1009.51
2017-05-29T02:40:25.248Z,1009.47
2017-05-29T02:41:25.273Z,1009.5
2017-05-29T02:42:25.299Z,1009.5
2017-05-29T02:43:25.329Z,1009.49
2017-05-29T02:44:25.352Z,1009.48
2017-05-29T02:45:25.379Z,1009.49
2017-05-29T02:46:25.405Z,1009.45
2017-05-29T02:47:25.432Z,1009.45
2017-05-29T02:48:25.457Z,1009.45
2017-05-29T02:49:25.484Z,1009.46
2017-05-29T02:50:25.511Z,1009.48
2017-05-29T02:51:25.539Z,1009.5
2017-05-29T02:52:25.565Z,1009.46
2017-05-29T02:54:25.618Z,1009.48
2017-05-29T02:55:25.644Z,1009.48
2017-05-29T02:56:25.671Z,1009.45
2017-05-29T02:57:25.698Z,1009.46
2017-05-29T02:58:25.724Z,1009.45
2017-05-29T02:59:25.749Z,1009.47
2017-05-29T03:00:25.782Z,1009.49
2017-05-29T03:01:25.803Z,1009.46
2017-05-29T03:02:25.828Z,1009.53
2017-05-29T03:03:25.856Z,1009.52
2017-05-29T03:04:25.882Z,1009.52
2017-05-29T03:05:25.908Z,1009.52
2017-05-29T03:06:25.934Z,1009.52
2017-05-29T03:07:25.961Z,1009.51
2017-05-29T03:08:25.988Z,1009.5
2017-05-29T03:09:26.064Z,1009.48
2017-05-29T03:10:26.040Z,1009.51
2017-05-29T03:11:26.066Z,1009.47
2017-05-29T03:12:26.092Z,1009.5
2017-05-29T03:13:26.119Z,1009.49
2017-05-29T03:14:26.145Z,1009.44
2017-05-29T03:15:26.171Z,1009.46
2017-05-29T03:16:26.199Z,1009.45
2017-05-29T03:17:26.224Z,1009.41
2017-05-29T03:18:26.250Z,1009.46
2017-05-29T03:19:26.277Z,1009.49
2017-05-29T03:20:26.303Z,1009.51
2017-05-29T03:21:26.330Z,1009.52
2017-05-29T03:22:26.356Z,1009.52
2017-05-29T03:23:26.383Z,1009.53
2017-05-29T03:24:26.410Z,1009.55
2017-05-29T03:26:26.462Z,1009.54
2017-05-29T03:27:26.489Z,1009.54
2017-05-29T03:28:26.514Z,1009.55
2017-05-29T03:29:26.541Z,1009.58
2017-05-29T03:30:26.568Z,1009.61
2017-05-29T03:31:26.595Z,1009.61
2017-05-29T03:32:26.620Z,1009.63
2017-05-29T03:33:26.648Z,1009.6
2017-05-29T03:34:26.673Z,1009.64
2017-05-29T03:35:26.699Z,1009.62
2017-05-29T03:36:26.726Z,1009.63
2017-05-29T03:37:26.752Z,1009.66
2017-05-29T03:38:26.779Z,1009.64
2017-05-29T03:39:26.805Z,1009.63
2017-05-29T03:40:26.832Z,1009.67
2017-05-29T03:42:26.885Z,1009.69
2017-05-29T03:43:26.911Z,1009.74
2017-05-29T03:44:26.938Z,1009.74
2017-05-29T03:45:26.965Z,1009.75
2017-05-29T03:46:26.990Z,1009.7
2017-05-29T03:47:27.017Z,1009.72
2017-05-29T03:48:27.046Z,1009.76
2017-05-29T03:49:27.070Z,1009.75
2017-05-29T03:50:27.096Z,1009.78
2017-05-29T03:51:27.123Z,1009.81
2017-05-29T03:52:27.150Z,1009.8
2017-05-29T03:53:27.177Z,1009.81
2017-05-29T03:54:27.202Z,1009.81
2017-05-29T03:55:27.229Z,1009.79
2017-05-29T03:56:27.255Z,1009.8
2017-05-29T03:58:27.309Z,1009.75
2017-05-29T03:59:27.336Z,1009.75
2017-05-29T04:00:27.362Z,1009.76
2017-05-29T04:01:27.388Z,1009.72
2017-05-29T04:02:27.415Z,1009.74
2017-05-29T04:03:27.442Z,1009.74
2017-05-29T04:04:27.468Z,1009.79
2017-05-29T04:05:27.494Z,1009.78
2017-05-29T04:06:27.521Z,1009.82
2017-05-29T04:07:27.548Z,1009.83
2017-05-29T04:08:27.574Z,1009.9
2017-05-29T04:09:27.601Z,1010.02
2017-05-29T04:10:27.629Z,1010.08
2017-05-29T04:11:27.655Z,1010.11
2017-05-29T04:12:27.681Z,1010.13
2017-05-29T04:14:27.737Z,1010.12
2017-05-29T04:15:27.764Z,1010.06
2017-05-29T04:16:27.791Z,1009.95
2017-05-29T04:17:27.819Z,1009.94
2017-05-29T04:18:27.847Z,1009.91
2017-05-29T04:19:27.875Z,1009.89
2017-05-29T04:20:27.902Z,1009.9
2017-05-29T04:21:27.930Z,1009.91
2017-05-29T04:22:27.958Z,1009.88
2017-05-29T04:23:27.986Z,1009.93
2017-05-29T04:24:28.014Z,1009.86
2017-05-29T04:25:28.041Z,1009.92
2017-05-29T04:26:28.070Z,1010.02
2017-05-29T04:27:28.098Z,1010
2017-05-29T04:29:28.154Z,1009.96
2017-05-29T04:30:28.181Z,1010.08
2017-05-29T04:31:28.210Z,1010.15
2017-05-29T04:32:28.239Z,1010.14
2017-05-29T04:33:28.267Z,1010.23
2017-05-29T04:34:28.295Z,1010.32
2017-05-29T04:35:28.323Z,1010.44
2017-05-29T04:36:28.352Z,1010.4
2017-05-29T04:37:28.381Z,1010.42
2017-05-29T04:38:28.411Z,1010.48
2017-05-29T04:39:28.441Z,1010.52
2017-05-29T04:40:28.470Z,1010.49
2017-05-29T04:41:28.499Z,1010.5
2017-05-29T04:42:28.530Z,1010.5
2017-05-29T04:43:28.561Z,1010.52
2017-05-29T04:44:28.593Z,1010.51
2017-05-29T04:45:28.623Z,1010.54
2017-05-29T04:46:28.704Z,1010.52
2017-05-29T04:47:28.686Z,1010.55
2017-05-29T04:48:28.718Z,1010.59
2017-05-29T04:49:28.751Z,1010.58
2017-05-29T04:50:28.783Z,1010.5
2017-05-29T04:51:28.816Z,1010.53
2017-05-29T04:52:28.848Z,1010.45
2017-05-29T04:53:28.882Z,1010.43
2017-05-29T04:54:28.914Z,1010.43
2017-05-29T04:55:28.948Z,1010.43
2017-05-29T04:56:28.981Z,1010.44
2017-05-29T04:57:29.015Z,1010.42
2017-05-29T04:58:29.048Z,1010.45
2017-05-29T04:59:29.082Z,1010.51
2017-05-29T05:01:29.150Z,1010.58
2017-05-29T05:02:29.185Z,1010.63
2017-05-29T05:03:29.218Z,1010.62
2017-05-29T05:04:29.254Z,1010.62
2017-05-29T05:05:29.288Z,1010.67
2017-05-29T05:06:29.323Z,1010.65
2017-05-29T05:07:29.358Z,1010.72
2017-05-29T05:08:29.393Z,1010.68
2017-05-29T05:09:29.428Z,1010.69
2017-05-29T05:10:29.462Z,1010.76
2017-05-29T05:11:29.498Z,1010.81
2017-05-29T05:12:29.533Z,1010.79
2017-05-29T05:13:29.568Z,1010.82
2017-05-29T05:14:29.603Z,1010.85
2017-05-29T05:15:29.639Z,1010.91
2017-05-29T05:17:29.712Z,1010.94
2017-05-29T05:18:29.747Z,1010.99
2017-05-29T05:19:29.783Z,1011.04
2017-05-29T05:20:29.819Z,1010.99
2017-05-29T05:21:29.855Z,1010.98
2017-05-29T05:22:29.890Z,1010.99
2017-05-29T05:23:29.928Z,1010.99
2017-05-29T05:24:29.963Z,1011.02
2017-05-29T05:25:29.999Z,1011.04
2017-05-29T05:26:30.037Z,1011.06
2017-05-29T05:27:30.073Z,1011.04
2017-05-29T05:28:30.110Z,1011.03
2017-05-29T05:29:30.146Z,1010.98
2017-05-29T05:30:30.182Z,1010.98
2017-05-29T05:31:30.218Z,1010.94
2017-05-29T05:33:30.291Z,1010.97
2017-05-29T05:34:30.327Z,1010.95
2017-05-29T05:35:30.364Z,1011.01
2017-05-29T05:36:30.399Z,1010.97
2017-05-29T05:37:30.437Z,1010.98
2017-05-29T05:38:30.473Z,1011.02
2017-05-29T05:39:30.510Z,1011.08
2017-05-29T05:40:30.596Z,1011.07
2017-05-29T05:41:30.583Z,1010.95
2017-05-29T05:42:30.620Z,1011.04
2017-05-29T05:43:30.654Z,1011.06
2017-05-29T05:44:30.692Z,1011.08
2017-05-29T05:45:30.728Z,1011.13
2017-05-29T05:46:30.766Z,1011.16
2017-05-29T05:47:30.801Z,1011.15
2017-05-29T05:49:30.877Z,1011.1
2017-05-29T05:50:30.913Z,1011.12
2017-05-29T05:51:30.950Z,1011.13
2017-05-29T05:52:30.986Z,1011.15
2017-05-29T05:53:31.023Z,1011.13
2017-05-29T05:54:31.060Z,1011.13
2017-05-29T05:55:31.097Z,1011.14
2017-05-29T05:56:31.136Z,1011.05
2017-05-29T05:57:31.173Z,1011.07
2017-05-29T05:58:31.209Z,1011.03
2017-05-29T05:59:31.250Z,1011.06
2017-05-29T06:00:31.284Z,1011.04
2017-05-29T06:01:31.323Z,1011.01
2017-05-29T06:02:31.360Z,1010.87
2017-05-29T06:04:31.437Z,1010.83
2017-05-29T06:05:31.473Z,1010.8
2017-05-29T06:06:31.512Z,1010.79
2017-05-29T06:07:31.550Z,1010.82
2017-05-29T06:08:31.589Z,1010.8
2017-05-29T06:09:31.626Z,1010.87
2017-05-29T06:10:31.663Z,1010.85
2017-05-29T06:11:31.701Z,1010.9
2017-05-29T06:12:31.740Z,1010.93
2017-05-29T06:13:31.779Z,1010.93
2017-05-29T06:14:31.817Z,1010.99
2017-05-29T06:15:31.855Z,1011.03
2017-05-29T06:16:31.894Z,1011.01
2017-05-29T06:17:31.932Z,1011.04
2017-05-29T06:18:31.972Z,1011.17
2017-05-29T06:19:32.010Z,1011.28
2017-05-29T06:20:32.048Z,1011.31
2017-05-29T06:21:32.088Z,1011.36
2017-05-29T06:22:32.127Z,1011.36
2017-05-29T06:23:32.166Z,1011.43
2017-05-29T06:24:32.211Z,1011.02
2017-05-29T06:25:32.245Z,1011.27
2017-05-29T06:26:32.284Z,1011.35
2017-05-29T06:27:32.322Z,1011.32
2017-05-29T06:28:32.362Z,1011.32
2017-05-29T06:29:32.401Z,1011.3
2017-05-29T06:30:32.440Z,1011.34
2017-05-29T06:31:32.479Z,1011.32
2017-05-29T06:32:32.521Z,1011.31
2017-05-29T06:33:32.558Z,1011.33
2017-05-29T06:34:32.597Z,1011.3
2017-05-29T06:36:32.676Z,1011.26
2017-05-29T06:37:32.715Z,1011.29
2017-05-29T06:38:32.759Z,1011.27
2017-05-29T06:39:32.796Z,1011.32
2017-05-29T06:40:32.834Z,1011.36
2017-05-29T06:41:32.874Z,1011.39
2017-05-29T06:42:32.913Z,1011.27
2017-05-29T06:43:32.952Z,1010.66
2017-05-29T06:44:32.992Z,1010.86
2017-05-29T06:45:33.031Z,1011.12
2017-05-29T06:46:33.070Z,1011.25
2017-05-29T06:47:33.110Z,1011.28
2017-05-29T06:48:33.148Z,1011.31
2017-05-29T06:49:33.188Z,1011.35
2017-05-29T06:50:33.227Z,1011.38
2017-05-29T06:52:33.306Z,1011.42
2017-05-29T06:53:33.345Z,1011.44
2017-05-29T06:54:33.387Z,1011.41
2017-05-29T06:55:33.424Z,1011.37
2017-05-29T06:56:33.463Z,1011.46
2017-05-29T06:57:33.502Z,1011.49
2017-05-29T06:58:33.543Z,1011.5
2017-05-29T06:59:33.582Z,1011.49
2017-05-29T07:00:33.621Z,1011.53
2017-05-29T07:01:33.662Z,1011.58
2017-05-29T07:02:33.701Z,1011.6
2017-05-29T07:03:33.742Z,1011.62
2017-05-29T07:04:33.780Z,1011.64
2017-05-29T07:05:33.820Z,1011.68
2017-05-29T07:06:33.860Z,1011.66
2017-05-29T07:08:33.939Z,1011.71
2017-05-29T07:09:33.981Z,1011.78
2017-05-29T07:10:34.019Z,1011.82
2017-05-29T07:11:34.058Z,1011.85
2017-05-29T07:12:34.099Z,1011.88
2017-05-29T07:13:34.139Z,1011.79
2017-05-29T07:14:34.179Z,1011.86
2017-05-29T07:15:34.218Z,1011.92
2017-05-29T07:16:34.258Z,1011.93
2017-05-29T07:17:34.304Z,1011.99
2017-05-29T07:18:34.338Z,1011.97
2017-05-29T07:19:34.378Z,1011.98
2017-05-29T07:20:34.418Z,1011.98
2017-05-29T07:21:34.458Z,1012
2017-05-29T07:22:34.498Z,1011.97
2017-05-29T07:24:34.578Z,1011.95
2017-05-29T07:25:34.618Z,1011.75
2017-05-29T07:26:34.657Z,1011.75
2017-05-29T07:27:34.698Z,1011.74
2017-05-29T07:28:34.737Z,1011.65
2017-05-29T07:29:34.775Z,1011.64
2017-05-29T07:30:34.815Z,1011.61
2017-05-29T07:31:34.856Z,1011.52
2017-05-29T07:32:34.935Z,1011.47
2017-05-29T07:33:34.935Z,1011.4
2017-05-29T07:34:34.983Z,1011.36
2017-05-29T07:35:35.014Z,1011.22
2017-05-29T07:36:35.054Z,1010.82
2017-05-29T07:37:35.094Z,1010.55
2017-05-29T07:39:35.173Z,1010.47
2017-05-29T07:40:35.212Z,1010.45
2017-05-29T07:41:35.252Z,1010.49
2017-05-29T07:42:35.292Z,1010.47
2017-05-29T07:43:35.333Z,1010.49
2017-05-29T07:44:35.371Z,1010.53
2017-05-29T07:45:35.412Z,1010.51
2017-05-29T07:46:35.452Z,1010.48
2017-05-29T07:47:35.491Z,1010.45
2017-05-29T07:48:35.531Z,1010.47
2017-05-29T07:49:35.572Z,1010.46
2017-05-29T07:50:35.611Z,1010.43
2017-05-29T07:51:35.651Z,1010.45
2017-05-29T07:52:35.691Z,1010.43
2017-05-29T07:53:35.732Z,1010.45
2017-05-29T07:54:35.772Z,1010.42
2017-05-29T07:55:35.812Z,1010.42
2017-05-29T07:56:35.851Z,1010.4
2017-05-29T07:57:35.891Z,1010.41
2017-05-29T07:58:35.931Z,1010.39
2017-05-29T07:59:35.969Z,1010.41
2017-05-29T08:00:36.012Z,1010.47
2017-05-29T08:01:36.050Z,1010.58
2017-05-29T08:02:36.089Z,1010.65
2017-05-29T08:03:36.130Z,1010.63
2017-05-29T08:04:36.171Z,1010.61
2017-05-29T08:05:36.210Z,1010.6
2017-05-29T08:06:36.264Z,1010.54
2017-05-29T08:07:36.290Z,1010.52
2017-05-29T08:08:36.330Z,1010.53
2017-05-29T08:09:36.370Z,1010.48
2017-05-29T08:11:36.450Z,1010.46
2017-05-29T08:12:36.490Z,1010.43
2017-05-29T08:13:36.530Z,1010.4
2017-05-29T08:14:36.570Z,1010.38
2017-05-29T08:15:36.610Z,1010.36
2017-05-29T08:16:36.651Z,1010.4
2017-05-29T08:17:36.689Z,1010.33
2017-05-29T08:18:36.729Z,1010.35
2017-05-29T08:19:36.769Z,1010.3
2017-05-29T08:20:36.808Z,1010.35
2017-05-29T08:21:36.848Z,1010.31
2017-05-29T08:22:36.888Z,1010.31
2017-05-29T08:23:36.927Z,1010.27
2017-05-29T08:24:36.966Z,1010.26
2017-05-29T08:25:37.007Z,1010.25
2017-05-29T08:27:37.087Z,1010.17
2017-05-29T08:28:37.125Z,1010.16
2017-05-29T08:29:37.164Z,1010.23
2017-05-29T08:30:37.205Z,1010.28
2017-05-29T08:31:37.244Z,1010.38
2017-05-29T08:32:37.283Z,1010.39
2017-05-29T08:33:37.322Z,1010.43
2017-05-29T08:34:37.363Z,1010.39
2017-05-29T08:35:37.401Z,1010.42
2017-05-29T08:36:37.441Z,1010.36
2017-05-29T08:37:37.480Z,1010.34
2017-05-29T08:38:37.520Z,1010.3
2017-05-29T08:39:37.557Z,1010.28
2017-05-29T08:40:37.597Z,1010.25
2017-05-29T08:41:37.637Z,1010.25
2017-05-29T08:43:37.715Z,1010.19
2017-05-29T08:44:37.754Z,1010.15
2017-05-29T08:45:37.794Z,1010.18
2017-05-29T08:46:37.832Z,1010.15
2017-05-29T08:47:37.872Z,1010.1
2017-05-29T08:48:37.912Z,1009.99
2017-05-29T08:49:37.952Z,1010.03
2017-05-29T08:50:37.989Z,1009.99
2017-05-29T08:51:38.028Z,1009.98
2017-05-29T08:52:38.066Z,1009.97
2017-05-29T08:53:38.106Z,1009.94
2017-05-29T08:54:38.145Z,1009.92
2017-05-29T08:55:38.184Z,1009.99
2017-05-29T08:56:38.223Z,1009.97
2017-05-29T08:57:38.261Z,1009.96
2017-05-29T08:59:38.339Z,1009.91
2017-05-29T09:00:38.379Z,1009.9
2017-05-29T09:01:38.416Z,1009.85
2017-05-29T09:02:38.455Z,1009.87
2017-05-29T09:03:38.493Z,1009.95
2017-05-29T09:04:38.531Z,1009.89
2017-05-29T09:05:38.570Z,1009.94
2017-05-29T09:06:38.609Z,1009.87
2017-05-29T09:07:38.647Z,1009.8
2017-05-29T09:08:38.685Z,1009.82
2017-05-29T09:09:38.724Z,1009.78
2017-05-29T09:10:38.762Z,1009.81
2017-05-29T09:11:38.801Z,1009.76
2017-05-29T09:12:38.839Z,1009.75
2017-05-29T09:14:38.917Z,1009.76
2017-05-29T09:15:38.955Z,1009.71
2017-05-29T09:16:38.993Z,1009.65
2017-05-29T09:17:39.031Z,1009.66
2017-05-29T09:18:39.069Z,1009.64
2017-05-29T09:19:39.157Z,1009.64
2017-05-29T09:20:39.145Z,1009.71
2017-05-29T09:21:39.183Z,1009.71
2017-05-29T09:22:39.220Z,1009.69
2017-05-29T09:23:39.259Z,1009.68
2017-05-29T09:24:39.297Z,1009.65
2017-05-29T09:25:39.335Z,1009.67
2017-05-29T09:26:39.372Z,1009.65
2017-05-29T09:27:39.409Z,1009.73
2017-05-29T09:28:39.448Z,1009.68
2017-05-29T09:29:39.486Z,1009.69
2017-05-29T09:30:39.523Z,1009.67
2017-05-29T09:31:39.561Z,1009.66
2017-05-29T09:32:39.599Z,1009.68
2017-05-29T09:33:39.636Z,1009.69
2017-05-29T09:34:39.728Z,1009.76
2017-05-29T09:35:39.711Z,1009.71
2017-05-29T09:36:39.750Z,1009.74
2017-05-29T09:37:39.786Z,1009.73
2017-05-29T09:38:39.825Z,1009.72
2017-05-29T09:39:39.862Z,1009.7
2017-05-29T09:40:39.900Z,1009.76
2017-05-29T09:41:39.937Z,1009.71
2017-05-29T09:42:39.975Z,1009.7
2017-05-29T09:43:40.012Z,1009.7
2017-05-29T09:44:40.049Z,1009.66
2017-05-29T09:46:40.125Z,1009.66
2017-05-29T09:47:40.162Z,1009.66
2017-05-29T09:48:40.199Z,1009.67
2017-05-29T09:49:40.236Z,1009.68
2017-05-29T09:50:40.274Z,1009.65
2017-05-29T09:51:40.311Z,1009.65
2017-05-29T09:52:40.410Z,1009.69
2017-05-29T09:53:40.385Z,1009.63
2017-05-29T09:54:40.422Z,1009.66
2017-05-29T09:55:40.459Z,1009.64
2017-05-29T09:56:40.495Z,1009.64
2017-05-29T09:57:40.533Z,1009.68
2017-05-29T09:58:40.568Z,1009.63
2017-05-29T09:59:40.604Z,1009.6
2017-05-29T10:00:40.641Z,1009.64
2017-05-29T10:02:40.715Z,1009.63
2017-05-29T10:03:40.751Z,1009.56
2017-05-29T10:04:40.787Z,1009.6
2017-05-29T10:05:40.824Z,1009.61
2017-05-29T10:06:40.860Z,1009.64
2017-05-29T10:07:40.896Z,1009.6
2017-05-29T10:08:40.932Z,1009.58
2017-05-29T10:09:40.969Z,1009.56
2017-05-29T10:10:41.005Z,1009.57
2017-05-29T10:11:41.042Z,1009.57
2017-05-29T10:12:41.080Z,1009.52
2017-05-29T10:13:41.115Z,1009.48
2017-05-29T10:14:41.151Z,1009.47
2017-05-29T10:15:41.187Z,1009.46
2017-05-29T10:16:41.224Z,1009.46
2017-05-29T10:18:41.295Z,1009.48
2017-05-29T10:19:41.331Z,1009.46
2017-05-29T10:20:41.368Z,1009.47
2017-05-29T10:21:41.403Z,1009.51
2017-05-29T10:22:41.440Z,1009.54
2017-05-29T10:23:41.476Z,1009.47
2017-05-29T10:24:41.513Z,1009.44
2017-05-29T10:25:41.548Z,1009.48
2017-05-29T10:26:41.584Z,1009.4
2017-05-29T10:27:41.619Z,1009.42
2017-05-29T10:28:41.656Z,1009.46
2017-05-29T10:29:41.695Z,1009.41
2017-05-29T10:30:41.727Z,1009.41
2017-05-29T10:31:41.765Z,1009.4
2017-05-29T10:32:41.800Z,1009.37
2017-05-29T10:34:41.872Z,1009.36
2017-05-29T10:35:41.907Z,1009.32
2017-05-29T10:36:41.943Z,1009.37
2017-05-29T10:37:41.979Z,1009.35
2017-05-29T10:38:42.015Z,1009.37
2017-05-29T10:39:42.050Z,1009.3
2017-05-29T10:40:42.086Z,1009.37
2017-05-29T10:41:42.122Z,1009.41
2017-05-29T10:42:42.158Z,1009.39
2017-05-29T10:43:42.193Z,1009.39
2017-05-29T10:44:42.229Z,1009.41
2017-05-29T10:45:42.264Z,1009.35
2017-05-29T10:46:42.303Z,1009.37
2017-05-29T10:47:42.335Z,1009.34
2017-05-29T10:49:42.407Z,1009.44
2017-05-29T10:50:42.491Z,1009.37
2017-05-29T10:51:42.477Z,1009.41
2017-05-29T10:52:42.513Z,1009.37
2017-05-29T10:53:42.549Z,1009.45
2017-05-29T10:54:42.583Z,1009.43
2017-05-29T10:55:42.618Z,1009.4
2017-05-29T10:56:42.654Z,1009.42
2017-05-29T10:57:42.688Z,1009.3
2017-05-29T10:58:42.722Z,1009.33
2017-05-29T10:59:42.759Z,1009.34
2017-05-29T11:00:42.794Z,1009.32
2017-05-29T11:01:42.828Z,1009.35
2017-05-29T11:02:42.864Z,1009.3
2017-05-29T11:03:42.899Z,1009.29
2017-05-29T11:04:42.934Z,1009.3
2017-05-29T11:05:42.968Z,1009.29
2017-05-29T11:06:43.003Z,1009.28
2017-05-29T11:07:43.037Z,1009.36
2017-05-29T11:08:43.072Z,1009.37
2017-05-29T11:09:43.107Z,1009.33
2017-05-29T11:10:43.142Z,1009.29
2017-05-29T11:11:43.177Z,1009.3
2017-05-29T11:12:43.512Z,1009.31
2017-05-29T11:13:43.246Z,1009.26
2017-05-29T11:14:43.282Z,1009.24
2017-05-29T11:15:43.316Z,1009.34
2017-05-29T11:16:43.350Z,1009.33
2017-05-29T11:17:43.385Z,1009.29
2017-05-29T11:18:43.420Z,1009.3
2017-05-29T11:19:43.454Z,1009.27
2017-05-29T11:21:43.524Z,1009.26
2017-05-29T11:22:43.560Z,1009.25
2017-05-29T11:23:43.592Z,1009.28
2017-05-29T11:24:43.627Z,1009.28
2017-05-29T11:25:43.661Z,1009.31
2017-05-29T11:26:43.696Z,1009.32
2017-05-29T11:27:43.730Z,1009.36
2017-05-29T11:28:43.764Z,1009.31
2017-05-29T11:29:43.799Z,1009.34
2017-05-29T11:30:43.833Z,1009.38
2017-05-29T11:31:43.867Z,1009.32
2017-05-29T11:32:43.902Z,1009.37
2017-05-29T11:33:43.937Z,1009.41
2017-05-29T11:34:43.970Z,1009.32
2017-05-29T11:35:44.005Z,1009.31
2017-05-29T11:37:44.073Z,1009.26
2017-05-29T11:38:44.107Z,1009.25
2017-05-29T11:39:44.142Z,1009.28
2017-05-29T11:40:44.177Z,1009.17
2017-05-29T11:41:44.259Z,1009.15
2017-05-29T11:42:44.244Z,1009.18
2017-05-29T11:43:44.278Z,1009.2
2017-05-29T11:44:44.313Z,1009.15
2017-05-29T11:45:44.346Z,1009.22
2017-05-29T11:46:44.380Z,1009.14
2017-05-29T11:47:44.414Z,1009.08
2017-05-29T11:48:44.449Z,1009.15
2017-05-29T11:49:44.482Z,1009.06
2017-05-29T11:50:44.517Z,1009.1
2017-05-29T11:51:44.551Z,1009.06
2017-05-29T11:53:44.619Z,1009.14
2017-05-29T11:54:44.652Z,1009.21
2017-05-29T11:55:44.687Z,1009.16
2017-05-29T11:56:44.720Z,1009.17
2017-05-29T11:57:44.754Z,1009.13
2017-05-29T11:58:44.789Z,1009.13
2017-05-29T11:59:44.823Z,1009.17
2017-05-29T12:00:44.855Z,1009.16
2017-05-29T12:01:44.890Z,1009.14
2017-05-29T12:02:44.925Z,1009.14
2017-05-29T12:03:44.969Z,1009.11
2017-05-29T12:04:44.992Z,1009.09
2017-05-29T12:05:45.025Z,1009.09
2017-05-29T12:06:45.060Z,1009.12
2017-05-29T12:07:45.093Z,1008.99
2017-05-29T12:09:45.162Z,1008.98
2017-05-29T12:10:45.196Z,1009.04
2017-05-29T12:11:45.229Z,1008.99
2017-05-29T12:12:45.263Z,1008.98
2017-05-29T12:13:45.297Z,1008.88
2017-05-29T12:14:45.330Z,1008.9
2017-05-29T12:15:45.365Z,1008.87
2017-05-29T12:16:45.398Z,1008.88
2017-05-29T12:17:45.432Z,1008.84
2017-05-29T12:18:45.465Z,1008.88
2017-05-29T12:19:45.500Z,1008.91
2017-05-29T12:20:45.534Z,1008.88
2017-05-29T12:21:45.567Z,1008.82
2017-05-29T12:22:45.602Z,1008.79
2017-05-29T12:24:45.670Z,1008.78
2017-05-29T12:25:45.702Z,1008.83
2017-05-29T12:26:45.737Z,1008.79
2017-05-29T12:27:45.770Z,1008.78
2017-05-29T12:28:45.804Z,1008.83
2017-05-29T12:29:45.837Z,1008.77
2017-05-29T12:30:45.872Z,1008.77
2017-05-29T12:31:45.905Z,1008.81
2017-05-29T12:32:45.939Z,1008.76
2017-05-29T12:33:45.973Z,1008.75
2017-05-29T12:34:46.007Z,1008.72
2017-05-29T12:35:46.040Z,1008.74
2017-05-29T12:36:46.072Z,1008.69
2017-05-29T12:37:46.107Z,1008.7
2017-05-29T12:38:46.141Z,1008.7
2017-05-29T12:39:46.175Z,1008.7
2017-05-29T12:40:46.208Z,1008.63
2017-05-29T12:41:46.241Z,1008.68
2017-05-29T12:42:46.276Z,1008.71
2017-05-29T12:43:46.309Z,1008.7
2017-05-29T12:44:46.342Z,1008.7
2017-05-29T12:45:46.376Z,1008.72
2017-05-29T12:46:46.409Z,1008.62
2017-05-29T12:47:46.442Z,1008.62
2017-05-29T12:48:46.477Z,1008.57